Time;durP1;ratioP1;P1;durP2;ratioP2;P2;SDS_P1;SDS_P2;PMS_P1;PMS_P2;Temp;Humidity;BMP_temperature;BMP_pressure;BME280_temperature;BME280_humidity;BME280_pressure;Samples;Min_cycle;Max_cycle;Signal;HPM_P1;HPM_P2
2021/06/21 00:01:19;;;;;;;;;7.25;5.25;;;;;21.77;94.04;100056.28;4942725;28;47179;-51
2021/06/21 00:03:44;;;;;;;;;6.50;6.25;;;;;21.77;93.82;100050.94;4942821;28;45462;-50
2021/06/21 00:06:10;;;;;;;;;7.00;7.00;;;;;21.78;93.88;100049.97;4942943;28;45384;-52
2021/06/21 00:08:35;;;;;;;;;5.75;5.75;;;;;21.78;93.82;100049.13;4942951;28;45274;-51
2021/06/21 00:11:00;;;;;;;;;8.25;6.25;;;;;21.78;93.94;100063.34;4942619;28;45949;-50
2021/06/21 00:13:26;;;;;;;;;7.25;7.25;;;;;21.78;93.79;100060.66;4942669;28;45352;-50
2021/06/21 00:15:52;;;;;;;;;7.50;7.00;;;;;21.75;93.53;100053.72;4943007;28;45241;-50
2021/06/21 00:18:17;;;;;;;;;7.00;7.00;;;;;21.75;93.71;100064.41;4942495;28;45437;-47
2021/06/21 00:20:43;;;;;;;;;9.25;9.25;;;;;21.73;94.07;100063.66;4942388;28;46378;-49
2021/06/21 00:23:08;;;;;;;;;7.75;7.75;;;;;21.69;94.45;100067.53;4942728;28;45172;-49
2021/06/21 00:25:34;;;;;;;;;9.00;7.25;;;;;21.68;94.15;100068.47;4942743;28;45273;-48
2021/06/21 00:27:59;;;;;;;;;7.25;7.25;;;;;21.70;93.49;100076.41;4942437;28;45214;-49
2021/06/21 00:30:25;;;;;;;;;8.50;8.50;;;;;21.68;94.02;100076.50;4942360;28;46136;-48
2021/06/21 00:32:50;;;;;;;;;8.00;7.75;;;;;21.65;93.88;100075.91;4957099;28;45309;-51
2021/06/21 00:35:17;;;;;;;;;13.50;10.75;;;;;21.64;94.24;100075.03;4941399;28;45240;-48
2021/06/21 00:37:43;;;;;;;;;13.00;11.50;;;;;21.62;93.72;100074.25;4942477;28;45342;-46
2021/06/21 00:40:10;;;;;;;;;9.00;8.75;;;;;21.59;94.07;100075.34;4942084;28;46075;-46
2021/06/21 00:42:37;;;;;;;;;10.50;10.50;;;;;21.59;93.78;100080.69;4956819;28;45391;-48
2021/06/21 00:45:03;;;;;;;;;14.00;10.75;;;;;21.59;93.98;100079.84;4957129;28;45267;-51
2021/06/21 00:47:28;;;;;;;;;12.75;9.50;;;;;21.58;93.66;100083.47;4942200;28;45232;-51
2021/06/21 00:49:54;;;;;;;;;10.50;8.75;;;;;21.59;93.57;100074.50;4941754;28;45949;-51
2021/06/21 00:52:21;;;;;;;;;11.00;8.25;;;;;21.59;93.22;100070.00;4940796;28;45242;-51
2021/06/21 00:54:47;;;;;;;;;7.25;6.00;;;;;21.59;93.30;100079.84;4941060;28;45448;-51
2021/06/21 00:57:13;;;;;;;;;5.00;5.00;;;;;21.58;93.15;100070.09;4956725;28;45330;-48
2021/06/21 00:59:38;;;;;;;;;8.50;7.00;;;;;21.59;93.19;100071.81;4941949;28;46296;-47
2021/06/21 01:02:04;;;;;;;;;6.75;6.75;;;;;21.57;93.07;100074.63;4942118;28;45381;-50
2021/06/21 01:04:29;;;;;;;;;7.75;7.50;;;;;21.59;93.13;100069.16;4941774;28;45309;-48
2021/06/21 01:06:55;;;;;;;;;6.50;6.50;;;;;21.59;93.20;100069.16;4941813;28;45457;-48
2021/06/21 01:09:21;;;;;;;;;6.00;6.00;;;;;21.59;92.87;100069.16;4941891;28;45396;-51
2021/06/21 01:12:10;;;;;;;;;8.00;8.00;;;;;21.57;92.89;100071.94;4929164;28;45231;-50
2021/06/21 01:14:56;;;;;;;;;9.25;9.25;;;;;21.55;93.01;100063.16;4942070;28;45227;-51
2021/06/21 01:17:32;;;;;;;;;11.00;8.00;;;;;21.56;92.93;100064.03;4941813;28;45271;-47
2021/06/21 01:20:11;;;;;;;;;10.75;9.00;;;;;21.55;92.60;100056.94;4940894;28;45514;-48
2021/06/21 01:23:01;;;;;;;;;7.00;7.00;;;;;21.55;92.62;100067.63;4941629;28;45314;-51
2021/06/21 01:25:49;;;;;;;;;9.25;8.00;;;;;21.53;92.56;100074.91;4941940;28;45541;-49
2021/06/21 01:28:54;;;;;;;;;9.00;9.00;;;;;21.50;92.76;100075.13;4941408;28;45544;-46
2021/06/21 01:31:21;;;;;;;;;9.75;9.75;;;;;21.46;93.44;100089.66;4941484;28;46080;-52
2021/06/21 01:33:48;;;;;;;;;9.25;9.25;;;;;21.39;93.28;100092.75;4956271;28;45372;-51
2021/06/21 01:36:16;;;;;;;;;15.00;12.75;;;;;21.37;93.11;100091.16;4941676;28;45369;-51
2021/06/21 01:38:50;;;;;;;;;15.50;14.00;;;;;21.28;94.04;100087.28;4940141;28;45716;-47
2021/06/21 01:41:20;;;;;;;;;11.75;11.75;;;;;21.22;93.79;100085.06;4940248;28;46447;-48
2021/06/21 01:43:49;;;;;;;;;11.50;10.25;;;;;21.20;94.03;100084.31;4941220;28;45318;-51
2021/06/21 01:46:17;;;;;;;;;10.75;10.75;;;;;21.09;93.64;100083.25;4941707;28;45337;-51
2021/06/21 01:48:48;;;;;;;;;12.25;10.50;;;;;21.06;93.50;100085.28;4941134;28;45413;-50
2021/06/21 01:51:15;;;;;;;;;10.25;10.00;;;;;21.00;93.70;100091.88;4941432;28;45235;-52
2021/06/21 01:53:40;;;;;;;;;7.50;7.25;;;;;20.93;93.72;100082.59;4941220;28;45290;-49
2021/06/21 01:56:22;;;;;;;;;5.00;5.00;;;;;20.89;93.04;100089.97;4941746;28;45316;-50
2021/06/21 01:58:52;;;;;;;;;7.50;7.50;;;;;20.84;92.96;100105.44;4941327;28;45204;-50
2021/06/21 02:01:19;;;;;;;;;5.00;5.00;;;;;20.75;92.54;100103.34;4941169;28;45512;-51
2021/06/21 02:03:49;;;;;;;;;4.00;4.00;;;;;20.69;92.19;100112.63;4941207;28;45302;-51
2021/06/21 02:06:16;;;;;;;;;4.50;4.50;;;;;20.62;92.60;100097.97;4941302;28;45291;-49
2021/06/21 02:08:42;;;;;;;;;5.50;5.25;;;;;20.56;92.36;100101.03;4941238;28;45163;-47
2021/06/21 02:11:09;;;;;;;;;4.75;4.75;;;;;20.52;91.74;100099.53;4939803;28;47078;-51
2021/06/21 02:13:35;;;;;;;;;5.25;5.25;;;;;20.44;92.22;100108.91;4941105;28;45409;-50
2021/06/21 02:16:03;;;;;;;;;4.00;3.75;;;;;20.39;92.17;100118.13;4939912;28;45385;-48
2021/06/21 02:18:30;;;;;;;;;5.00;4.00;;;;;20.35;91.89;100108.63;4941042;28;45497;-51
2021/06/21 02:20:56;;;;;;;;;4.25;4.00;;;;;20.32;91.84;100106.19;4940689;28;45307;-48
2021/06/21 02:23:23;;;;;;;;;4.00;3.75;;;;;20.29;91.70;100110.75;4939805;28;45234;-49
2021/06/21 02:25:51;;;;;;;;;3.25;2.75;;;;;20.25;91.31;100116.38;4939763;28;45283;-49
2021/06/21 02:28:18;;;;;;;;;4.00;4.00;;;;;20.18;91.06;100112.41;4939393;28;45536;-49
2021/06/21 02:30:45;;;;;;;;;5.00;4.00;;;;;20.09;91.30;100108.53;4939552;28;48133;-50
2021/06/21 02:33:12;;;;;;;;;3.75;3.00;;;;;20.06;91.31;100112.25;4944309;28;45183;-51
2021/06/21 02:35:37;;;;;;;;;1.25;1.00;;;;;20.02;91.14;100110.72;4943011;28;45439;-49
2021/06/21 02:38:03;;;;;;;;;4.50;4.00;;;;;19.96;91.74;100121.75;4944264;28;45339;-49
2021/06/21 02:40:28;;;;;;;;;3.00;3.00;;;;;19.90;91.37;100120.34;4943932;28;47191;-50
2021/06/21 02:42:54;;;;;;;;;3.75;3.75;;;;;19.81;91.80;100119.09;4944098;28;45238;-49
2021/06/21 02:45:19;;;;;;;;;4.00;3.50;;;;;19.80;91.87;100117.38;4944280;28;45309;-51
2021/06/21 02:47:45;;;;;;;;;3.00;3.00;;;;;19.75;91.88;100116.81;4943905;28;45294;-49
2021/06/21 02:50:11;;;;;;;;;4.00;3.25;;;;;19.75;91.74;100121.28;4958768;28;47109;-49
2021/06/21 02:52:44;;;;;;;;;3.25;3.25;;;;;19.72;91.14;100116.13;4944003;28;45243;-46
2021/06/21 02:55:23;;;;;;;;;4.75;3.00;;;;;19.67;91.86;100118.22;4944028;28;45291;-50
2021/06/21 02:58:00;;;;;;;;;4.75;4.75;;;;;19.67;91.11;100123.56;4943810;28;45397;-50
2021/06/21 03:00:27;;;;;;;;;5.00;4.75;;;;;19.63;91.71;100122.91;4943709;28;46445;-50
2021/06/21 03:02:56;;;;;;;;;5.75;4.00;;;;;19.62;91.33;100130.03;4942143;28;45691;-48
2021/06/21 03:05:23;;;;;;;;;5.00;5.00;;;;;19.63;91.59;100138.88;4943936;28;45282;-50
2021/06/21 03:07:50;;;;;;;;;4.00;3.25;;;;;19.58;91.60;100131.16;4943680;28;45393;-48
2021/06/21 03:10:18;;;;;;;;;3.50;3.50;;;;;19.56;91.68;100141.06;4942540;28;46094;-50
2021/06/21 03:12:45;;;;;;;;;6.25;5.00;;;;;19.57;91.94;100147.25;4943320;28;45417;-48
2021/06/21 03:15:13;;;;;;;;;4.50;4.50;;;;;19.51;91.92;100139.63;4943826;28;45393;-51
2021/06/21 03:17:39;;;;;;;;;6.75;5.50;;;;;19.53;91.39;100143.06;4943361;28;45252;-51
2021/06/21 03:20:05;;;;;;;;;5.00;5.00;;;;;19.53;91.92;100143.06;4943356;28;46317;-49
2021/06/21 03:22:31;;;;;;;;;6.00;5.75;;;;;19.52;91.69;100146.69;4943450;28;45215;-51
2021/06/21 03:24:56;;;;;;;;;6.00;5.00;;;;;19.53;91.87;100143.06;4943713;28;45234;-50
2021/06/21 03:27:34;;;;;;;;;5.00;5.00;;;;;19.52;91.76;100136.91;4943186;28;45325;-52
2021/06/21 03:30:02;;;;;;;;;5.75;4.75;;;;;19.49;91.52;100129.91;4943374;28;47033;-46
2021/06/21 03:32:31;;;;;;;;;4.50;4.50;;;;;19.53;91.24;100133.25;4943190;28;45363;-50
2021/06/21 03:35:00;;;;;;;;;5.00;4.00;;;;;19.56;91.58;100142.88;4943285;28;45311;-47
2021/06/21 03:37:26;;;;;;;;;5.00;5.00;;;;;19.53;91.35;100138.59;4943062;28;45523;-50
2021/06/21 03:39:52;;;;;;;;;7.00;7.00;;;;;19.53;91.24;100130.59;4943326;28;46311;-50
2021/06/21 03:42:17;;;;;;;;;7.00;7.00;;;;;19.52;91.63;100139.56;4942394;28;45424;-47
2021/06/21 03:44:43;;;;;;;;;6.75;6.75;;;;;19.54;91.36;100131.47;4943527;28;45184;-52
2021/06/21 03:47:12;;;;;;;;;7.25;5.00;;;;;19.53;91.56;100138.59;4943051;28;45179;-50
2021/06/21 03:49:40;;;;;;;;;5.00;5.00;;;;;19.53;91.53;100143.91;4942996;28;45492;-50
2021/06/21 03:52:05;;;;;;;;;8.00;8.00;;;;;19.56;91.57;100150.88;4942859;28;45327;-48
2021/06/21 03:54:31;;;;;;;;;4.75;4.75;;;;;19.55;91.67;100143.84;4943188;28;45331;-49
2021/06/21 03:56:56;;;;;;;;;5.00;5.00;;;;;19.57;91.76;100144.59;4942701;28;45234;-49
2021/06/21 03:59:22;;;;;;;;;6.00;6.00;;;;;19.57;91.51;100145.47;4943046;28;46076;-48
2021/06/21 04:01:49;;;;;;;;;7.75;7.50;;;;;19.52;91.74;100138.69;4941731;28;45342;-49
2021/06/21 04:04:14;;;;;;;;;7.00;7.00;;;;;19.46;92.13;100147.94;4942806;28;45330;-46
2021/06/21 04:06:40;;;;;;;;;7.00;7.00;;;;;19.46;92.29;100143.44;4942898;28;45267;-49
2021/06/21 04:09:05;;;;;;;;;7.25;7.25;;;;;19.48;92.05;100157.53;4942833;28;46190;-49
2021/06/21 04:11:31;;;;;;;;;8.75;7.00;;;;;19.52;91.98;100155.56;4942603;28;45441;-50
2021/06/21 04:13:57;;;;;;;;;9.75;7.25;;;;;19.48;91.60;100160.22;4957693;28;45168;-50
2021/06/21 04:16:23;;;;;;;;;7.75;7.75;;;;;19.47;92.14;100150.50;4942755;28;45591;-51
2021/06/21 04:18:48;;;;;;;;;6.50;6.00;;;;;19.51;91.82;100155.63;4942310;28;46263;-47
2021/06/21 04:21:13;;;;;;;;;7.25;7.25;;;;;19.50;91.50;100160.09;4942473;28;45453;-50
2021/06/21 04:23:39;;;;;;;;;8.25;7.25;;;;;19.50;91.81;100160.09;4942839;28;45310;-48
2021/06/21 04:26:04;;;;;;;;;6.25;6.00;;;;;19.52;91.03;100158.22;4942442;28;45294;-49
2021/06/21 04:28:29;;;;;;;;;13.50;9.25;;;;;19.51;91.18;100158.28;4942251;28;45366;-51
2021/06/21 04:30:55;;;;;;;;;8.00;8.00;;;;;19.54;90.89;100172.28;4942400;28;45282;-50
2021/06/21 04:33:20;;;;;;;;;8.25;8.25;;;;;19.52;91.26;100166.22;4942579;28;45296;-48
2021/06/21 04:35:45;;;;;;;;;7.25;6.50;;;;;19.49;91.54;100166.38;4942359;28;45295;-49
2021/06/21 04:38:11;;;;;;;;;7.00;6.25;;;;;19.51;90.99;100169.81;4942394;28;45501;-50
2021/06/21 04:40:37;;;;;;;;;8.25;8.25;;;;;19.47;90.98;100163.81;4942235;28;45353;-50
2021/06/21 04:43:03;;;;;;;;;9.75;9.00;;;;;19.51;91.09;100183.13;4941251;28;45476;-49
2021/06/21 04:45:29;;;;;;;;;10.00;8.75;;;;;19.51;90.67;100184.94;4942001;28;45616;-50
2021/06/21 04:47:55;;;;;;;;;10.75;9.00;;;;;19.50;91.04;100176.09;4942004;28;46033;-52
2021/06/21 04:50:20;;;;;;;;;11.25;9.25;;;;;19.49;90.92;100175.22;4942043;28;45235;-48
2021/06/21 04:52:48;;;;;;;;;13.25;9.75;;;;;19.46;91.14;100175.41;4942329;28;45244;-49
2021/06/21 04:55:16;;;;;;;;;8.75;8.75;;;;;19.47;91.04;100181.59;4941152;28;45409;-50
2021/06/21 04:57:42;;;;;;;;;9.75;8.00;;;;;19.47;90.88;100192.25;4941993;28;45426;-57
2021/06/21 05:00:11;;;;;;;;;11.25;9.50;;;;;19.45;91.08;100179.03;4941899;28;45312;-52
2021/06/21 05:02:36;;;;;;;;;9.00;9.00;;;;;19.44;90.91;100201.28;4941841;28;45219;-51
2021/06/21 05:05:03;;;;;;;;;8.25;7.25;;;;;19.42;91.12;100189.00;4941724;28;45460;-50
2021/06/21 05:07:28;;;;;;;;;10.00;9.00;;;;;19.39;90.88;100182.06;4940780;28;47333;-48
2021/06/21 05:09:54;;;;;;;;;9.00;8.00;;;;;19.44;90.71;100190.63;4956556;28;45779;-50
2021/06/21 05:12:19;;;;;;;;;8.75;8.75;;;;;19.39;90.79;100192.72;4942119;28;45321;-52
2021/06/21 05:14:45;;;;;;;;;8.75;8.25;;;;;19.45;91.28;100199.50;4941789;28;45361;-50
2021/06/21 05:17:11;;;;;;;;;10.25;8.50;;;;;19.45;91.21;100203.00;4941846;28;46146;-52
2021/06/21 05:19:37;;;;;;;;;9.00;9.00;;;;;19.46;91.20;100195.88;4941567;28;45326;-49
2021/06/21 05:22:04;;;;;;;;;9.75;9.75;;;;;19.44;90.92;100198.63;4942081;28;45371;-50
2021/06/21 05:24:30;;;;;;;;;8.25;8.25;;;;;19.43;91.20;100199.59;4941611;28;45168;-51
2021/06/21 05:26:55;;;;;;;;;11.50;8.50;;;;;19.43;90.99;100190.72;4941503;28;45553;-51
2021/06/21 05:29:20;;;;;;;;;8.25;8.25;;;;;19.49;90.90;100191.19;4941394;28;45218;-51
2021/06/21 05:31:46;;;;;;;;;9.25;8.75;;;;;19.50;91.08;100202.75;4940714;28;45315;-51
2021/06/21 05:34:11;;;;;;;;;7.75;7.75;;;;;19.53;91.13;100204.34;4941369;28;45492;-50
2021/06/21 05:36:37;;;;;;;;;11.00;9.75;;;;;19.56;91.07;100204.16;4941684;28;46154;-51
2021/06/21 05:39:03;;;;;;;;;12.25;8.75;;;;;19.59;90.69;100214.66;4941386;28;45274;-51
2021/06/21 05:41:29;;;;;;;;;11.50;10.00;;;;;19.59;90.49;100207.50;4941848;28;45441;-48
2021/06/21 05:43:54;;;;;;;;;9.00;8.75;;;;;19.61;90.65;100210.94;4941372;28;45278;-51
2021/06/21 05:46:19;;;;;;;;;11.75;11.00;;;;;19.60;90.13;100203.88;4941445;28;45306;-50
2021/06/21 05:48:45;;;;;;;;;9.00;9.00;;;;;19.55;90.56;100208.66;4941154;28;45392;-51
2021/06/21 05:51:10;;;;;;;;;10.25;10.00;;;;;19.58;90.60;100215.59;4941633;28;45506;-51
2021/06/21 05:53:35;;;;;;;;;11.25;11.25;;;;;19.58;90.52;100224.44;4941325;28;45468;-50
2021/06/21 05:56:01;;;;;;;;;22.50;19.75;;;;;19.62;90.47;100222.44;4941300;28;45246;-51
2021/06/21 05:58:26;;;;;;;;;10.50;10.50;;;;;19.64;89.95;100217.88;4939908;28;45764;-48
2021/06/21 06:00:52;;;;;;;;;12.50;11.50;;;;;19.65;90.60;100233.78;4941428;28;45313;-51
2021/06/21 06:03:17;;;;;;;;;9.75;8.50;;;;;19.67;90.33;100228.34;4940974;28;45543;-49
2021/06/21 06:05:42;;;;;;;;;13.25;10.50;;;;;19.63;90.45;100235.69;4942885;28;46697;-49
2021/06/21 06:08:08;;;;;;;;;9.50;7.50;;;;;19.63;90.58;100234.81;4944568;28;45219;-55
2021/06/21 06:10:33;;;;;;;;;7.75;6.00;;;;;19.65;90.46;100246.25;4944800;28;45283;-50
2021/06/21 06:12:59;;;;;;;;;10.75;10.50;;;;;19.69;90.60;100253.13;4944414;28;45437;-51
2021/06/21 06:15:25;;;;;;;;;12.25;12.25;;;;;19.72;90.53;100263.59;4943276;28;46047;-53
2021/06/21 06:17:51;;;;;;;;;11.25;11.25;;;;;19.81;89.56;100248.88;4943980;28;45227;-54
2021/06/21 06:20:16;;;;;;;;;10.00;10.00;;;;;19.81;90.18;100264.88;4944696;28;45243;-54
2021/06/21 06:22:42;;;;;;;;;10.00;9.50;;;;;19.87;90.08;100261.81;4959105;28;45412;-52
2021/06/21 06:25:08;;;;;;;;;8.00;7.00;;;;;19.89;89.53;100262.59;4944267;28;46202;-61
2021/06/21 06:27:34;;;;;;;;;14.00;9.00;;;;;19.87;89.02;100250.31;4943855;28;45349;-60
2021/06/21 06:29:59;;;;;;;;;9.25;9.25;;;;;19.91;88.85;100258.03;4944575;28;45330;-60
2021/06/21 06:32:24;;;;;;;;;7.50;7.50;;;;;19.91;89.39;100258.03;4944279;28;45324;-59
2021/06/21 06:34:50;;;;;;;;;8.75;7.50;;;;;19.95;88.90;100250.72;4944123;28;45549;-60
2021/06/21 06:37:15;;;;;;;;;7.75;5.75;;;;;20.00;89.26;100242.41;4944062;28;45361;-60
2021/06/21 06:39:40;;;;;;;;;8.50;7.75;;;;;19.98;89.56;100242.53;4944514;28;45322;-60
2021/06/21 06:42:06;;;;;;;;;7.00;7.00;;;;;19.97;89.08;100238.13;4944000;28;45525;-60
2021/06/21 06:44:32;;;;;;;;;8.00;8.00;;;;;20.01;89.34;100233.47;4944196;28;45877;-60
2021/06/21 06:46:57;;;;;;;;;8.75;8.00;;;;;20.06;88.77;100232.25;4943895;28;45329;-60
2021/06/21 06:49:23;;;;;;;;;8.25;8.00;;;;;20.13;88.61;100227.38;4944136;28;45151;-60
2021/06/21 06:51:51;;;;;;;;;9.50;8.25;;;;;20.14;88.67;100229.94;4943882;28;45576;-60
2021/06/21 06:57:00;;;;;;;;;7.75;7.50;;;;;20.23;87.26;100238.34;4943657;28;45349;-60
2021/06/21 06:59:30;;;;;;;;;9.50;9.50;;;;;20.27;87.30;100239.84;4943983;28;45289;-60
2021/06/21 07:01:56;;;;;;;;;9.00;8.75;;;;;20.29;87.42;100243.28;4943520;28;45425;-60
2021/06/21 07:04:22;;;;;;;;;7.00;7.00;;;;;20.32;87.89;100235.09;4943423;28;45431;-60
2021/06/21 07:06:48;;;;;;;;;9.50;8.00;;;;;20.34;87.07;100251.00;4943682;28;45248;-59
2021/06/21 07:09:13;;;;;;;;;8.50;7.25;;;;;20.38;87.28;100266.72;4943866;28;45316;-59
2021/06/21 07:11:39;;;;;;;;;7.00;7.00;;;;;20.38;86.85;100258.72;4943527;28;45249;-59
2021/06/21 07:14:06;;;;;;;;;6.00;4.00;;;;;20.41;86.29;100258.50;4943583;28;46305;-60
2021/06/21 07:16:33;;;;;;;;;8.00;7.00;;;;;20.42;86.21;100264.72;4942740;28;45251;-60
2021/06/21 07:18:58;;;;;;;;;7.50;7.50;;;;;20.48;85.89;100255.44;4943328;28;45356;-60
2021/06/21 07:21:23;;;;;;;;;6.50;6.25;;;;;20.48;85.73;100255.44;4943320;28;45439;-60
2021/06/21 07:23:49;;;;;;;;;6.00;5.75;;;;;20.50;86.24;100253.56;4943645;28;45437;-59
2021/06/21 07:26:14;;;;;;;;;7.25;6.00;;;;;20.52;86.16;100263.16;4943289;28;45401;-60
2021/06/21 07:28:39;;;;;;;;;9.00;8.00;;;;;20.57;85.39;100266.41;4943411;28;45278;-60
2021/06/21 07:31:05;;;;;;;;;1.50;1.50;;;;;20.58;85.96;100272.63;4943345;28;45291;-60
2021/06/21 07:33:31;;;;;;;;;7.25;7.25;;;;;20.62;85.50;100274.97;4943394;28;45770;-60
2021/06/21 07:35:57;;;;;;;;;7.25;7.25;;;;;20.69;85.26;100277.25;4958097;28;45381;-60
2021/06/21 07:38:23;;;;;;;;;4.00;4.00;;;;;20.72;84.49;100283.28;4943620;28;45239;-60
2021/06/21 07:40:48;;;;;;;;;7.25;7.25;;;;;20.76;84.28;100284.78;4943053;28;45579;-60
2021/06/21 07:43:14;;;;;;;;;6.50;6.50;;;;;20.80;84.41;100285.47;4943247;28;45234;-60
2021/06/21 07:45:41;;;;;;;;;6.75;6.75;;;;;20.84;84.33;100280.78;4943075;28;45433;-59
2021/06/21 07:48:06;;;;;;;;;6.25;6.25;;;;;20.88;84.35;100291.19;4943209;28;45275;-60
2021/06/21 07:50:32;;;;;;;;;8.00;7.50;;;;;20.92;83.94;100290.00;4942796;28;45183;-60
2021/06/21 07:52:58;;;;;;;;;6.25;5.50;;;;;20.99;83.44;100284.28;4943178;28;46302;-60
2021/06/21 07:55:27;;;;;;;;;10.25;8.00;;;;;21.03;83.49;100294.66;4942970;28;45319;-60
2021/06/21 07:57:52;;;;;;;;;7.00;7.00;;;;;21.03;83.38;100285.78;4942979;28;45277;-60
2021/06/21 08:00:21;;;;;;;;;5.00;5.00;;;;;21.05;82.71;100298.06;4942913;28;45230;-60
2021/06/21 08:02:46;;;;;;;;;4.75;4.75;;;;;21.09;82.76;100302.28;4942661;28;46598;-60
2021/06/21 08:05:12;;;;;;;;;5.25;5.00;;;;;21.15;82.50;100306.34;4942896;28;45161;-61
2021/06/21 08:07:38;;;;;;;;;4.75;4.75;;;;;21.16;82.80;100305.41;4943008;28;45478;-61
2021/06/21 08:10:04;;;;;;;;;6.00;6.00;;;;;21.19;83.12;100309.69;4942649;28;45560;-60
2021/06/21 08:12:30;;;;;;;;;5.75;5.75;;;;;21.23;nan;100312.06;4942729;28;45368;-60
2021/06/21 08:14:55;;;;;;;;;6.00;6.00;;;;;21.30;82.20;100314.34;4942685;28;45336;-60
2021/06/21 08:17:20;;;;;;;;;6.75;4.75;;;;;21.33;82.41;100316.78;4941604;28;45832;-60
2021/06/21 08:19:46;;;;;;;;;4.00;4.00;;;;;21.36;81.96;100322.78;4942589;28;45338;-60
2021/06/21 08:22:12;;;;;;;;;5.00;4.25;;;;;21.37;80.76;100324.50;4957393;28;48092;-60
2021/06/21 08:24:40;;;;;;;;;5.50;5.50;;;;;21.42;81.23;100319.72;4942656;28;45324;-60
2021/06/21 08:27:06;;;;;;;;;6.50;6.50;;;;;21.44;80.93;100314.25;4942710;28;45291;-60
2021/06/21 08:29:31;;;;;;;;;5.00;5.00;;;;;21.48;81.40;100315.75;4942304;28;45218;-60
2021/06/21 08:31:57;;;;;;;;;3.75;3.75;;;;;21.47;81.20;100316.75;4942444;28;46231;-60
2021/06/21 08:34:22;;;;;;;;;3.50;3.00;;;;;21.53;80.90;100316.31;4942401;28;45330;-61
2021/06/21 08:36:47;;;;;;;;;5.50;3.75;;;;;21.53;80.80;100299.41;4941178;28;45654;-60
2021/06/21 08:39:13;;;;;;;;;7.25;5.75;;;;;21.61;80.38;100297.13;4942197;28;45314;-60
2021/06/21 08:41:38;;;;;;;;;4.50;4.50;;;;;21.60;79.59;100306.09;4940860;28;47311;-60
2021/06/21 08:44:03;;;;;;;;;3.00;3.00;;;;;21.68;79.85;100305.59;4942380;28;45314;-60
2021/06/21 08:46:29;;;;;;;;;4.00;4.00;;;;;21.71;79.81;100306.25;4942599;28;45381;-60
2021/06/21 08:48:57;;;;;;;;;4.50;4.00;;;;;21.69;79.69;100316.16;4940798;28;45995;-60
2021/06/21 08:51:23;;;;;;;;;4.00;4.00;;;;;21.78;79.48;100321.88;4953836;28;45610;-60
2021/06/21 08:53:48;;;;;;;;;5.75;5.75;;;;;21.82;79.04;100318.00;4941821;28;45233;-61
2021/06/21 08:56:14;;;;;;;;;5.50;4.50;;;;;21.81;78.54;100308.28;4942459;28;45205;-61
2021/06/21 08:58:40;;;;;;;;;5.00;4.00;;;;;21.84;78.06;100316.09;4940825;28;45176;-60
2021/06/21 09:01:06;;;;;;;;;3.25;3.00;;;;;21.86;77.78;100323.06;4941981;28;46197;-60
2021/06/21 09:03:33;;;;;;;;;5.00;4.00;;;;;21.85;77.49;100326.69;4941608;28;45247;-61
2021/06/21 09:05:59;;;;;;;;;4.00;4.00;;;;;21.83;76.56;100325.09;4942194;28;45338;-60
2021/06/21 09:08:25;;;;;;;;;3.00;3.00;;;;;21.83;76.58;100317.06;4941925;28;45259;-60
2021/06/21 09:10:51;;;;;;;;;3.00;3.00;;;;;21.82;76.60;100323.38;4956817;28;48196;-60
2021/06/21 09:13:19;;;;;;;;;4.25;4.25;;;;;21.83;76.31;100317.91;4941730;28;45404;-60
2021/06/21 09:15:49;;;;;;;;;4.00;4.00;;;;;21.85;76.01;100316.00;4941970;28;45287;-61
2021/06/21 09:18:35;;;;;;;;;23.75;21.75;;;;;21.85;76.35;100310.66;4941622;28;45303;-62
2021/06/21 09:21:39;;;;;;;;;2.00;2.00;;;;;21.85;76.39;100321.34;4940360;28;45398;-61
2021/06/21 09:24:16;;;;;;;;;3.00;2.00;;;;;21.92;75.80;100319.09;4901189;29;45414;-59
2021/06/21 09:26:43;;;;;;;;;2.00;2.00;;;;;21.96;75.38;100325.97;4901563;29;45460;-61
2021/06/21 09:29:09;;;;;;;;;4.75;3.25;;;;;22.02;74.93;100322.00;4923035;28;45440;-61
2021/06/21 09:31:54;;;;;;;;;3.25;3.00;;;;;22.06;75.16;100334.19;4941691;28;45433;-61
2021/06/21 09:34:22;;;;;;;;;3.50;3.50;;;;;22.06;75.20;100335.06;4941363;28;45336;-61
2021/06/21 09:36:48;;;;;;;;;2.00;2.00;;;;;22.06;74.33;100326.16;4940426;28;45465;-62
2021/06/21 09:39:22;;;;;;;;;1.75;1.75;;;;;22.13;74.93;100343.50;4956538;28;45361;-61
2021/06/21 09:42:07;;;;;;;;;3.00;3.00;;;;;22.18;74.81;100346.72;4947254;28;46085;-61
2021/06/21 09:44:35;;;;;;;;;3.50;2.00;;;;;22.22;73.64;100350.06;4947959;28;45168;-61
2021/06/21 09:47:11;;;;;;;;;3.25;2.50;;;;;22.26;73.67;100351.53;4947927;28;45369;-61
2021/06/21 09:49:37;;;;;;;;;1.25;1.25;;;;;22.37;72.73;100358.88;4947760;28;45438;-62
2021/06/21 09:52:03;;;;;;;;;1.00;1.00;;;;;22.43;72.97;100355.75;4962545;28;45465;-62
2021/06/21 09:54:33;;;;;;;;;3.75;2.00;;;;;22.49;72.78;100358.00;4947858;28;45267;-61
2021/06/21 09:57:12;;;;;;;;;3.00;2.00;;;;;22.51;72.62;100358.75;4947776;28;45630;-61
2021/06/21 09:59:46;;;;;;;;;4.25;2.75;;;;;22.65;72.51;100365.78;4946498;28;45527;-61
2021/06/21 10:02:18;;;;;;;;;3.00;3.00;;;;;22.71;72.14;100359.16;4947683;28;45373;-62
2021/06/21 10:04:45;;;;;;;;;2.00;2.00;;;;;22.84;72.09;100359.13;4947510;28;45414;-62
2021/06/21 10:07:30;;;;;;;;;1.50;1.50;;;;;22.89;72.05;100354.28;4947761;28;45317;-61
2021/06/21 10:10:07;;;;;;;;;3.75;2.00;;;;;23.02;72.02;100363.16;4947443;28;45492;-62
2021/06/21 10:12:33;;;;;;;;;1.50;1.50;;;;;23.12;71.08;100365.16;4947403;28;45266;-62
2021/06/21 10:14:59;;;;;;;;;4.25;2.25;;;;;23.20;71.28;100368.19;4947540;28;45239;-62
2021/06/21 10:17:25;;;;;;;;;2.25;2.25;;;;;23.21;71.21;100359.19;4947371;28;45440;-60
2021/06/21 10:19:52;;;;;;;;;2.50;2.00;;;;;23.31;71.34;100359.38;4947719;28;45195;-61
2021/06/21 10:22:21;;;;;;;;;3.50;3.50;;;;;23.36;70.54;100365.25;4947455;28;46363;-60
2021/06/21 10:24:49;;;;;;;;;3.50;2.00;;;;;23.43;70.99;100355.75;4947473;28;45462;-62
2021/06/21 10:27:16;;;;;;;;;4.00;3.50;;;;;23.49;70.08;100355.28;4947163;28;45179;-61
2021/06/21 10:29:42;;;;;;;;;4.25;3.00;;;;;23.61;69.88;100361.56;4947405;28;45327;-62
2021/06/21 10:32:08;;;;;;;;;3.00;3.00;;;;;23.67;69.23;100355.75;4947235;28;45477;-62
2021/06/21 10:34:34;;;;;;;;;3.25;2.00;;;;;23.74;69.27;100352.59;4947167;28;45334;-61
2021/06/21 10:36:59;;;;;;;;;2.00;2.00;;;;;23.80;68.83;100361.03;4947209;28;45630;-61
2021/06/21 10:39:32;;;;;;;;;3.00;2.00;;;;;23.85;68.45;100363.38;4947558;28;45306;-61
2021/06/21 10:42:03;;;;;;;;;3.00;3.00;;;;;23.89;68.73;100364.00;4947037;28;46331;-61
2021/06/21 10:44:40;;;;;;;;;1.25;1.25;;;;;23.95;68.33;100359.03;4947284;28;45321;-61
2021/06/21 10:47:41;;;;;;;;;2.25;2.25;;;;;24.04;68.91;100354.81;4947179;28;45157;-61
2021/06/21 10:50:15;;;;;;;;;2.00;2.00;;;;;24.11;69.19;100358.72;4947049;28;45472;-61
2021/06/21 10:52:51;;;;;;;;;2.00;1.00;;;;;24.18;68.90;100351.03;4933483;28;46364;-62
2021/06/21 10:55:35;;;;;;;;;2.25;2.00;;;;;24.32;68.72;100355.34;4943814;28;45391;-62
2021/06/21 10:58:28;;;;;;;;;2.25;1.75;;;;;24.48;69.04;100357.69;4943846;28;45346;-62
2021/06/21 11:00:54;;;;;;;;;1.75;1.75;;;;;24.73;68.05;100353.03;4939788;28;45717;-63
2021/06/21 11:03:26;;;;;;;;;1.00;1.00;;;;;25.03;68.23;100360.50;4943352;28;45883;-63
2021/06/21 11:06:06;;;;;;;;;3.00;3.00;;;;;25.31;68.11;100358.22;4944014;28;45369;-65
2021/06/21 11:08:46;;;;;;;;;2.00;2.00;;;;;25.64;68.34;100354.56;4943870;28;45274;-64
2021/06/21 11:11:33;;;;;;;;;2.00;2.00;;;;;26.04;68.12;100363.81;4943687;28;45546;-63
2021/06/21 11:14:07;;;;;;;;;2.50;2.00;;;;;26.50;67.94;100360.81;4943619;28;45374;-64
2021/06/21 11:16:32;;;;;;;;;3.25;2.00;;;;;26.93;68.83;100357.91;4958362;28;45457;-63
2021/06/21 11:19:13;;;;;;;;;2.00;2.00;;;;;27.43;69.09;100358.88;4943469;28;46525;-65
2021/06/21 11:21:48;;;;;;;;;3.00;2.00;;;;;27.92;69.56;100349.94;4943675;28;45405;-63
2021/06/21 11:24:46;;;;;;;;;1.75;1.75;;;;;28.48;69.22;100351.81;4943274;28;46340;-64
2021/06/21 11:27:15;;;;;;;;;2.00;2.00;;;;;28.93;69.14;100352.91;4942921;28;45302;-63
2021/06/21 11:29:47;;;;;;;;;1.75;1.75;;;;;29.32;69.10;100349.13;4942230;28;45346;-64
2021/06/21 11:32:14;;;;;;;;;1.00;1.00;;;;;29.51;68.56;100330.03;4943344;28;45386;-63